createdAt,value
2022-09-16T03:02:01.276Z,10.79
2022-09-16T03:04:29.151Z,10.86
2022-09-16T03:06:55.800Z,10.86
2022-09-16T03:09:24.151Z,10.70
2022-09-16T03:12:28.730Z,10.53
2022-09-16T03:14:57.840Z,10.63
2022-09-16T03:17:46.305Z,10.68
2022-09-16T03:20:26.369Z,10.62
2022-09-16T03:23:00.949Z,10.62
2022-09-16T03:25:42.365Z,10.73
2022-09-16T03:28:30.318Z,10.54
2022-09-16T03:31:07.103Z,10.47
2022-09-16T03:33:36.245Z,10.43
2022-09-16T03:36:05.732Z,10.64
2022-09-16T03:38:35.562Z,10.47
2022-09-16T03:41:07.295Z,10.50
2022-09-16T03:43:33.666Z,10.55
2022-09-16T03:46:00.437Z,10.45
2022-09-16T03:48:26.939Z,10.46
2022-09-16T03:50:53.529Z,10.61
2022-09-16T03:53:20.073Z,10.57
2022-09-16T03:55:49.801Z,10.66
2022-09-16T03:58:16.323Z,10.69
2022-09-16T04:00:42.781Z,10.48
2022-09-16T04:03:09.341Z,10.52
2022-09-16T04:05:35.745Z,10.55
2022-09-16T04:08:02.364Z,10.53
2022-09-16T04:10:28.983Z,10.62
2022-09-16T04:12:58.748Z,10.55
2022-09-16T04:15:25.261Z,10.61
2022-09-16T04:17:51.886Z,10.31
2022-09-16T04:20:18.611Z,10.34
2022-09-16T04:22:45.050Z,10.48
2022-09-16T04:25:11.510Z,10.44
2022-09-16T04:27:38.148Z,10.48
2022-09-16T04:30:05.275Z,10.39
2022-09-16T04:32:31.704Z,10.44
2022-09-16T04:34:58.371Z,10.50
2022-09-16T04:37:24.849Z,10.39
2022-09-16T04:39:51.366Z,10.52
2022-09-16T04:42:17.951Z,10.18
2022-09-16T04:44:44.820Z,10.40
2022-09-16T04:47:11.262Z,10.44
2022-09-16T04:49:37.774Z,10.32
2022-09-16T04:52:04.275Z,10.13
2022-09-16T04:54:30.907Z,10.27
2022-09-16T04:56:57.690Z,10.34
2022-09-16T04:59:24.101Z,10.41
2022-09-16T05:01:50.732Z,10.58
2022-09-16T05:04:17.277Z,10.47
2022-09-16T05:06:44.509Z,10.38
2022-09-16T05:09:12.543Z,10.39
2022-09-16T05:11:40.467Z,10.36
2022-09-16T05:14:10.842Z,10.36
2022-09-16T05:16:37.308Z,10.47
2022-09-16T05:19:07.637Z,10.47
2022-09-16T05:21:36.354Z,10.31
2022-09-16T05:24:05.249Z,10.39
2022-09-16T05:26:35.411Z,10.42
2022-09-16T05:29:04.248Z,10.42
2022-09-16T05:31:32.738Z,10.42
2022-09-16T05:34:06.109Z,10.27
2022-09-16T05:36:37.418Z,10.40
2022-09-16T05:41:54.309Z,10.41
2022-09-16T05:44:20.729Z,10.37
2022-09-16T05:46:47.188Z,10.57
2022-09-16T05:49:13.901Z,10.49
2022-09-16T05:51:41.945Z,10.49
2022-09-16T05:54:08.809Z,10.68
2022-09-16T05:56:35.330Z,10.77
2022-09-16T05:59:02.221Z,10.81
2022-09-16T06:01:34.602Z,10.72
2022-09-16T06:04:03.361Z,10.72
2022-09-16T06:06:32.311Z,10.82
2022-09-16T06:09:12.806Z,10.66
2022-09-16T06:11:45.814Z,10.95
2022-09-16T06:14:13.661Z,11.10
2022-09-16T06:16:40.203Z,10.96
2022-09-16T06:19:12.979Z,10.87
2022-09-16T06:21:40.596Z,11.08
2022-09-16T06:24:10.508Z,11.38
2022-09-16T06:26:38.785Z,11.51
2022-09-16T06:29:06.385Z,11.47
2022-09-16T06:31:33.960Z,11.87
2022-09-16T06:34:00.560Z,11.78
2022-09-16T06:36:32.865Z,11.59
2022-09-16T06:38:59.509Z,11.72
2022-09-16T06:41:26.207Z,11.37
2022-09-16T06:43:52.742Z,11.75
2022-09-16T06:46:27.324Z,12.00
2022-09-16T06:48:59.291Z,12.14
2022-09-16T06:51:31.403Z,12.11
2022-09-16T06:54:04.151Z,11.96
2022-09-16T06:56:30.687Z,12.55
2022-09-16T06:58:57.330Z,12.63
2022-09-16T07:01:26.540Z,12.48
2022-09-16T07:03:54.270Z,12.34
2022-09-16T07:06:22.308Z,12.53
2022-09-16T07:08:49.132Z,12.50
2022-09-16T07:11:21.806Z,12.75
2022-09-16T07:13:49.693Z,13.07
2022-09-16T07:16:18.913Z,12.99
2022-09-16T07:18:46.851Z,13.40
2022-09-16T07:21:16.021Z,14.22
2022-09-16T07:23:43.663Z,14.71
2022-09-16T07:26:31.420Z,14.46
2022-09-16T07:29:03.215Z,14.61
2022-09-16T07:31:32.314Z,14.81
2022-09-16T07:34:04.263Z,16.25
2022-09-16T07:36:34.164Z,15.69
2022-09-16T07:39:00.640Z,16.44
2022-09-16T07:41:33.276Z,16.53
2022-09-16T07:44:00.673Z,16.59
2022-09-16T07:46:29.309Z,17.06
2022-09-16T07:48:56.544Z,17.35
2022-09-16T07:51:25.123Z,17.00
2022-09-16T07:53:59.405Z,15.94
2022-09-16T07:56:29.063Z,15.56
2022-09-16T07:58:56.910Z,15.46
2022-09-16T08:01:24.737Z,14.90
2022-09-16T08:03:51.413Z,14.68
2022-09-16T08:06:20.529Z,14.24
2022-09-16T08:08:47.245Z,14.41
2022-09-16T08:11:15.057Z,14.61
2022-09-16T08:13:43.149Z,14.64
2022-09-16T08:16:15.354Z,14.40
2022-09-16T08:18:42.449Z,14.45
2022-09-16T08:21:13.721Z,13.90
2022-09-16T08:23:40.967Z,13.50
2022-09-16T08:26:09.649Z,13.95
2022-09-16T08:28:45.458Z,14.31
2022-09-16T08:31:19.039Z,14.65
2022-09-16T08:33:46.064Z,14.40
2022-09-16T08:36:16.279Z,14.56
2022-09-16T08:38:44.732Z,15.25
2022-09-16T08:41:35.964Z,15.54
2022-09-16T08:44:25.645Z,15.47
2022-09-16T08:46:59.722Z,15.34
2022-09-16T08:49:47.084Z,16.59
2022-09-16T08:52:28.313Z,17.35
2022-09-16T08:55:02.493Z,17.19
2022-09-16T08:57:32.996Z,16.89
2022-09-16T09:00:08.068Z,16.21
2022-09-16T09:02:37.846Z,16.34
2022-09-16T09:05:17.941Z,17.77
2022-09-16T09:08:15.568Z,17.71
2022-09-16T09:10:54.614Z,17.00
2022-09-16T09:13:33.131Z,17.25
2022-09-16T09:16:38.552Z,16.81
2022-09-16T09:19:23.895Z,15.65
2022-09-16T09:22:13.740Z,15.27
2022-09-16T09:24:57.073Z,17.17
2022-09-16T09:27:37.849Z,17.79
2022-09-16T09:30:17.329Z,17.45
2022-09-16T09:33:44.971Z,18.80
2022-09-16T09:36:32.309Z,19.90
2022-09-16T09:39:07.528Z,19.24
2022-09-16T09:41:43.171Z,20.07
2022-09-16T09:44:48.278Z,20.62
2022-09-16T09:47:22.798Z,19.61
2022-09-16T09:49:57.505Z,19.79
2022-09-16T09:52:31.208Z,20.40
2022-09-16T09:55:06.543Z,20.31
2022-09-16T09:57:33.018Z,20.59
2022-09-16T09:59:59.816Z,20.91
2022-09-16T10:02:26.574Z,19.31
2022-09-16T10:04:53.246Z,19.79
2022-09-16T10:07:22.511Z,20.72
2022-09-16T10:09:55.239Z,21.07
2022-09-16T10:12:29.330Z,20.97
2022-09-16T10:14:56.011Z,20.70
2022-09-16T10:17:22.614Z,19.57
2022-09-16T10:19:59.347Z,18.32
2022-09-16T10:22:34.041Z,18.67
2022-09-16T10:25:07.877Z,19.50
2022-09-16T10:27:37.001Z,19.57
2022-09-16T10:30:10.281Z,18.93
2022-09-16T10:33:08.194Z,17.51
2022-09-16T10:35:37.402Z,16.73
2022-09-16T10:38:13.073Z,16.79
2022-09-16T10:41:10.896Z,17.22
2022-09-16T10:43:39.527Z,17.55
2022-09-16T10:46:14.353Z,17.75
2022-09-16T10:48:42.971Z,17.28
2022-09-16T10:51:22.634Z,17.17
2022-09-16T10:53:56.292Z,17.59
2022-09-16T10:56:31.601Z,18.70
2022-09-16T10:59:09.417Z,19.10
2022-09-16T11:01:47.242Z,18.76
2022-09-16T11:05:02.740Z,19.13
2022-09-16T11:07:42.273Z,18.54
2022-09-16T11:10:29.778Z,18.65
2022-09-16T11:13:20.264Z,18.83
2022-09-16T11:15:56.077Z,18.66
2022-09-16T11:18:36.061Z,19.81
2022-09-16T11:21:08.265Z,19.16
2022-09-16T11:24:08.273Z,19.88
2022-09-16T11:26:35.419Z,20.15
2022-09-16T11:29:31.202Z,21.63
2022-09-16T11:32:10.333Z,22.16
2022-09-16T11:34:48.883Z,21.73
2022-09-16T11:37:39.069Z,22.53
2022-09-16T11:40:32.044Z,22.51
2022-09-16T11:43:21.300Z,23.16
2022-09-16T11:46:16.032Z,23.14
2022-09-16T11:48:45.195Z,22.98
2022-09-16T11:51:20.318Z,23.75
2022-09-16T11:54:31.069Z,24.18
2022-09-16T11:57:02.496Z,25.77
2022-09-16T11:59:39.949Z,25.18
2022-09-16T12:02:18.061Z,23.98
2022-09-16T12:04:51.384Z,23.16
2022-09-16T12:10:00.001Z,22.76
2022-09-16T12:12:35.275Z,21.17
2022-09-16T12:15:07.355Z,21.08
2022-09-16T12:17:37.297Z,20.40
2022-09-16T12:20:25.375Z,20.47
2022-09-16T12:23:17.545Z,20.27
2022-09-16T12:25:57.740Z,20.81
2022-09-16T12:28:31.429Z,21.36
2022-09-16T12:31:20.566Z,22.21
2022-09-16T12:34:11.616Z,22.89
2022-09-16T12:36:45.886Z,22.58
2022-09-16T12:39:12.823Z,22.83
2022-09-16T12:42:00.546Z,24.09
2022-09-16T12:44:34.310Z,23.45
2022-09-16T12:47:06.999Z,20.40
2022-09-16T12:50:10.754Z,19.38
2022-09-16T12:52:49.679Z,18.76
2022-09-16T12:55:31.698Z,19.53
2022-09-16T12:58:16.549Z,19.66
2022-09-16T13:00:58.422Z,21.40
2022-09-16T13:03:28.689Z,21.74
2022-09-16T13:05:58.288Z,20.28
2022-09-16T13:08:30.728Z,19.02
2022-09-16T13:11:30.338Z,18.95
2022-09-16T13:13:50.447Z,18.68
2022-09-16T13:16:34.380Z,18.41
2022-09-16T13:19:26.164Z,18.11
2022-09-16T13:21:57.749Z,17.89
2022-09-16T13:24:37.962Z,17.72
2022-09-16T13:27:28.189Z,17.02
2022-09-16T13:30:13.388Z,16.93
2022-09-16T13:33:00.062Z,17.13
2022-09-16T13:35:42.854Z,16.95
2022-09-16T13:38:15.298Z,16.98
2022-09-16T13:40:55.670Z,16.90
2022-09-16T13:43:48.816Z,17.06
2022-09-16T13:46:27.052Z,16.71
2022-09-16T13:49:05.758Z,16.89
2022-09-16T13:51:45.396Z,16.72
2022-09-16T13:55:10.106Z,16.55
2022-09-16T13:57:49.280Z,16.69
2022-09-16T14:00:53.852Z,16.96
2022-09-16T14:03:36.915Z,16.91
2022-09-16T14:06:40.753Z,17.19
2022-09-16T14:09:34.054Z,16.82
2022-09-16T14:12:31.993Z,16.75
2022-09-16T14:15:00.338Z,17.02
2022-09-16T14:17:38.050Z,16.98
2022-09-16T14:20:05.514Z,16.92
2022-09-16T14:22:33.671Z,16.86
2022-09-16T14:25:06.973Z,16.65
2022-09-16T14:27:46.094Z,16.65
2022-09-16T14:30:18.123Z,16.59
2022-09-16T14:32:47.176Z,16.48
2022-09-16T14:35:24.495Z,16.36
2022-09-16T14:37:56.210Z,16.52
2022-09-16T14:40:26.200Z,16.51
2022-09-16T14:43:08.218Z,16.53
2022-09-16T14:45:37.242Z,16.55
2022-09-16T14:48:09.612Z,16.73
2022-09-16T14:50:45.886Z,16.76
2022-09-16T14:53:34.827Z,16.76
2022-09-16T14:56:02.840Z,16.80
2022-09-16T14:58:32.049Z,16.88
2022-09-16T15:01:12.566Z,16.98
2022-09-16T15:03:53.570Z,16.87
2022-09-16T15:06:31.251Z,16.82
2022-09-16T15:09:16.518Z,16.24
2022-09-16T15:11:57.244Z,16.41
2022-09-16T15:14:24.782Z,16.24
2022-09-16T15:16:57.958Z,16.10
2022-09-16T15:19:35.482Z,16.10
2022-09-16T15:22:03.359Z,16.26
2022-09-16T15:24:33.300Z,16.28
2022-09-16T15:27:00.704Z,16.30
2022-09-16T15:29:34.181Z,16.35
2022-09-16T15:32:31.917Z,16.34
2022-09-16T15:35:25.006Z,16.26
2022-09-16T15:37:55.297Z,16.33
2022-09-16T15:40:27.825Z,16.40
2022-09-16T15:43:17.990Z,16.45
2022-09-16T15:45:59.148Z,16.38
2022-09-16T15:48:30.523Z,16.25
2022-09-16T15:51:11.433Z,16.44
2022-09-16T15:53:44.972Z,16.56
2022-09-16T15:56:30.956Z,16.25
2022-09-16T15:59:01.875Z,16.19
2022-09-16T16:01:53.275Z,15.99
2022-09-16T16:04:26.612Z,15.78
2022-09-16T16:07:01.727Z,15.71
2022-09-16T16:09:29.451Z,15.83
2022-09-16T16:12:01.506Z,15.78
2022-09-16T16:14:32.763Z,15.87
2022-09-16T16:17:13.829Z,15.94
2022-09-16T16:19:45.816Z,15.69
2022-09-16T16:22:14.265Z,15.81
2022-09-16T16:24:41.494Z,15.64
2022-09-16T16:27:08.835Z,15.57
2022-09-16T16:29:35.401Z,15.73
2022-09-16T16:32:10.914Z,15.67
2022-09-16T16:34:39.940Z,15.71
2022-09-16T16:37:07.734Z,15.64
2022-09-16T16:39:34.938Z,15.67
2022-09-16T16:42:02.095Z,15.71
2022-09-16T16:44:28.525Z,15.69
2022-09-16T16:46:55.727Z,15.88
2022-09-16T16:49:22.760Z,15.49
2022-09-16T16:51:51.232Z,15.18
2022-09-16T16:54:18.715Z,15.24
2022-09-16T16:56:46.042Z,14.99
2022-09-16T16:59:12.650Z,14.82
2022-09-16T17:01:39.172Z,14.93
2022-09-16T17:04:06.198Z,14.80
2022-09-16T17:06:34.932Z,14.77
2022-09-16T17:09:01.978Z,14.64
2022-09-16T17:11:28.738Z,14.61
2022-09-16T17:14:01.964Z,14.70
2022-09-16T17:16:29.787Z,14.47
2022-09-16T17:18:58.805Z,14.20
2022-09-16T17:21:28.815Z,14.40
2022-09-16T17:23:55.763Z,14.51
2022-09-16T17:26:23.021Z,14.38
2022-09-16T17:28:50.904Z,14.10
2022-09-16T17:31:24.402Z,14.31
2022-09-16T17:33:58.783Z,14.14
2022-09-16T17:36:26.324Z,14.06
2022-09-16T17:38:57.479Z,13.97
2022-09-16T17:41:27.038Z,13.92
2022-09-16T17:43:54.745Z,13.94
2022-09-16T17:46:23.181Z,13.74
2022-09-16T17:48:52.897Z,13.64
2022-09-16T17:51:20.150Z,13.59
2022-09-16T17:53:46.625Z,13.74
2022-09-16T17:56:15.230Z,13.58
2022-09-16T17:58:44.738Z,13.44
2022-09-16T18:01:13.844Z,13.58
2022-09-16T18:03:42.610Z,13.47
2022-09-16T18:06:15.189Z,13.58
2022-09-16T18:08:42.034Z,13.49
2022-09-16T18:11:10.898Z,13.45
2022-09-16T18:13:37.903Z,13.56
2022-09-16T18:16:19.465Z,13.38
2022-09-16T18:18:49.425Z,13.51
2022-09-16T18:21:17.732Z,13.62
2022-09-16T18:23:44.681Z,13.46
2022-09-16T18:26:13.464Z,13.34
2022-09-16T18:29:08.199Z,13.25
2022-09-16T18:31:30.122Z,13.13
2022-09-16T18:33:56.904Z,13.18
2022-09-16T18:36:25.503Z,13.12
2022-09-16T18:38:57.182Z,13.22
2022-09-16T18:41:28.064Z,13.14
2022-09-16T18:43:59.926Z,13.14
2022-09-16T18:46:36.913Z,12.99
2022-09-16T18:49:04.218Z,13.20
2022-09-16T18:51:36.559Z,13.04
2022-09-16T18:54:14.060Z,13.10
2022-09-16T18:56:41.170Z,13.15
2022-09-16T18:59:22.574Z,13.20
2022-09-16T19:01:55.274Z,13.08
2022-09-16T19:04:24.746Z,13.11
2022-09-16T19:06:54.091Z,13.08
2022-09-16T19:09:22.617Z,13.06
2022-09-16T19:11:49.828Z,13.01
2022-09-16T19:14:16.637Z,12.95
2022-09-16T19:16:44.945Z,13.10
2022-09-16T19:19:14.524Z,13.09
2022-09-16T19:21:42.253Z,13.01
2022-09-16T19:24:14.157Z,12.94
2022-09-16T19:26:41.977Z,13.09
2022-09-16T19:29:09.709Z,12.92
2022-09-16T19:31:38.894Z,12.99
2022-09-16T19:34:06.044Z,12.84
2022-09-16T19:36:34.017Z,12.86
2022-09-16T19:39:01.041Z,12.64
2022-09-16T19:41:30.053Z,12.65
2022-09-16T19:43:59.382Z,12.65
2022-09-16T19:46:27.472Z,12.67
2022-09-16T19:48:54.664Z,12.57
2022-09-16T19:51:23.603Z,12.43
2022-09-16T19:53:51.809Z,12.33
2022-09-16T19:56:24.192Z,12.31
2022-09-16T19:58:51.868Z,12.01
2022-09-16T20:01:24.007Z,12.01
2022-09-16T20:03:51.024Z,11.71
2022-09-16T20:06:24.135Z,11.60
2022-09-16T20:09:01.056Z,11.51
2022-09-16T20:11:33.633Z,11.35
2022-09-16T20:14:03.369Z,11.15
2022-09-16T20:16:35.510Z,10.93
2022-09-16T20:19:04.276Z,10.71
2022-09-16T20:21:30.938Z,10.79
2022-09-16T20:23:57.449Z,10.99
2022-09-16T20:26:24.022Z,10.94
2022-09-16T20:28:53.586Z,10.64
2022-09-16T20:31:23.301Z,10.61
2022-09-16T20:33:50.987Z,10.58
2022-09-16T20:36:19.932Z,10.41
2022-09-16T20:38:46.958Z,10.31
2022-09-16T20:41:19.516Z,10.20
2022-09-16T20:43:46.701Z,10.21
2022-09-16T20:46:24.756Z,10.30
2022-09-16T20:48:55.546Z,10.27
2022-09-16T20:51:24.859Z,9.70
2022-09-16T20:54:07.704Z,10.01
2022-09-16T20:56:38.800Z,10.13
2022-09-16T20:59:10.792Z,9.98
2022-09-16T21:01:38.022Z,10.07
2022-09-16T21:04:07.799Z,10.02
2022-09-16T21:06:35.853Z,9.77
2022-09-16T21:09:06.083Z,9.99
2022-09-16T21:11:33.139Z,9.84
2022-09-16T21:14:06.412Z,10.13
2022-09-16T21:16:34.845Z,9.98
2022-09-16T21:19:03.964Z,10.11
2022-09-16T21:21:30.727Z,10.23
2022-09-16T21:23:58.593Z,10.06
2022-09-16T21:26:24.969Z,10.16
2022-09-16T21:28:59.448Z,10.00
2022-09-16T21:31:28.231Z,10.31
2022-09-16T21:33:56.683Z,10.25
2022-09-16T21:36:24.995Z,10.25
2022-09-16T21:38:51.622Z,10.11
2022-09-16T21:41:21.201Z,10.37
2022-09-16T21:43:51.137Z,10.36
2022-09-16T21:46:22.891Z,10.22
2022-09-16T21:48:50.436Z,10.35
2022-09-16T21:51:18.730Z,10.34
2022-09-16T21:53:46.308Z,10.38
2022-09-16T21:56:16.192Z,10.52
2022-09-16T21:58:43.325Z,10.60
